createdAt,value
2022-10-17T00:00:36.516Z,16.72
2022-10-17T00:01:36.574Z,16.64
2022-10-17T00:02:36.517Z,16.49
2022-10-17T00:03:36.485Z,16.43
2022-10-17T00:04:36.480Z,16.39
2022-10-17T00:05:36.458Z,16.46
2022-10-17T00:06:36.447Z,16.41
2022-10-17T00:07:36.438Z,16.43
2022-10-17T00:08:36.446Z,16.47
2022-10-17T00:09:36.415Z,16.50
2022-10-17T00:10:36.406Z,16.57
2022-10-17T00:11:36.395Z,16.60
2022-10-17T00:12:36.385Z,16.61
2022-10-17T00:13:36.404Z,16.64
2022-10-17T00:14:36.357Z,16.61
2022-10-17T00:15:36.375Z,16.56
2022-10-17T00:16:36.337Z,16.56
2022-10-17T00:17:36.327Z,16.51
2022-10-17T00:18:36.328Z,16.42
2022-10-17T00:19:36.327Z,16.38
2022-10-17T00:20:36.299Z,16.33
2022-10-17T00:21:36.287Z,16.35
2022-10-17T00:23:36.258Z,16.35
2022-10-17T00:24:36.258Z,16.38
2022-10-17T00:25:36.259Z,16.36
2022-10-17T00:26:36.228Z,16.38
2022-10-17T00:27:36.219Z,16.38
2022-10-17T00:28:36.278Z,16.38
2022-10-17T00:29:36.188Z,16.36
2022-10-17T00:30:36.178Z,16.35
2022-10-17T00:31:36.189Z,16.31
2022-10-17T00:32:36.159Z,16.29
2022-10-17T00:33:36.150Z,16.23
2022-10-17T00:34:36.138Z,16.20
2022-10-17T00:35:36.119Z,16.13
2022-10-17T00:36:36.119Z,16.15
2022-10-17T00:37:36.117Z,16.17
2022-10-17T00:38:36.089Z,16.23
2022-10-17T00:39:36.086Z,16.23
2022-10-17T00:40:36.068Z,16.23
2022-10-17T00:41:36.057Z,16.24
2022-10-17T00:42:36.069Z,16.26
2022-10-17T00:43:36.029Z,16.24
2022-10-17T00:44:36.019Z,16.20
2022-10-17T00:45:36.009Z,16.17
2022-10-17T00:46:35.999Z,16.21
2022-10-17T00:47:35.988Z,16.20
2022-10-17T00:48:35.999Z,16.20
2022-10-17T00:49:35.961Z,16.17
2022-10-17T00:50:35.959Z,16.16
2022-10-17T00:51:35.950Z,16.13
2022-10-17T00:52:35.938Z,16.12
2022-10-17T00:53:35.919Z,16.09
2022-10-17T00:54:35.930Z,16.12
2022-10-17T00:55:35.898Z,16.16
2022-10-17T00:56:35.889Z,16.17
2022-10-17T00:57:35.879Z,16.16
2022-10-17T00:58:35.868Z,16.13
2022-10-17T00:59:35.873Z,16.13
2022-10-17T01:00:35.839Z,16.15
2022-10-17T01:01:35.858Z,16.15
2022-10-17T01:02:35.820Z,16.20
2022-10-17T01:03:35.808Z,16.21
2022-10-17T01:04:35.803Z,16.21
2022-10-17T01:05:35.816Z,16.20
2022-10-17T01:06:35.780Z,16.17
2022-10-17T01:07:37.272Z,16.16
2022-10-17T01:08:35.760Z,16.13
2022-10-17T01:09:35.738Z,16.16
2022-10-17T01:10:35.751Z,16.23
2022-10-17T01:11:35.720Z,16.28
2022-10-17T01:12:35.710Z,16.31
2022-10-17T01:13:35.697Z,16.35
2022-10-17T01:14:35.690Z,16.39
2022-10-17T01:15:35.672Z,16.41
2022-10-17T01:16:35.692Z,16.46
2022-10-17T01:17:35.651Z,16.47
2022-10-17T01:18:35.641Z,16.49
2022-10-17T01:19:35.630Z,16.54
2022-10-17T01:20:35.621Z,16.61
2022-10-17T01:21:35.610Z,16.57
2022-10-17T01:22:35.621Z,16.58
2022-10-17T01:23:35.581Z,16.58
2022-10-17T01:24:35.571Z,16.68
2022-10-17T01:25:35.563Z,16.76
2022-10-17T01:26:35.560Z,16.86
2022-10-17T01:27:35.565Z,16.87
2022-10-17T01:28:35.619Z,16.87
2022-10-17T01:29:35.512Z,16.86
2022-10-17T01:30:35.510Z,16.87
2022-10-17T01:31:35.491Z,16.89
2022-10-17T01:32:35.490Z,16.83
2022-10-17T01:33:35.492Z,16.83
2022-10-17T01:34:35.462Z,16.86
2022-10-17T01:35:35.443Z,16.75
2022-10-17T01:36:35.441Z,16.79
2022-10-17T01:37:35.432Z,16.78
2022-10-17T01:38:35.421Z,16.75
2022-10-17T01:39:36.978Z,16.79
2022-10-17T01:40:35.393Z,16.81
2022-10-17T01:41:35.382Z,16.84
2022-10-17T01:42:35.373Z,16.79
2022-10-17T01:43:35.352Z,16.83
2022-10-17T01:44:35.354Z,16.86
2022-10-17T01:45:35.358Z,16.84
2022-10-17T01:46:35.333Z,16.81
2022-10-17T01:47:35.315Z,16.81
2022-10-17T01:48:35.304Z,16.79
2022-10-17T01:49:35.291Z,16.75
2022-10-17T01:50:35.283Z,16.69
2022-10-17T01:51:35.282Z,16.64
2022-10-17T01:52:35.328Z,16.61
2022-10-17T01:53:35.245Z,16.58
2022-10-17T01:54:35.241Z,16.53
2022-10-17T01:55:35.223Z,16.50
2022-10-17T01:56:35.234Z,16.46
2022-10-17T01:57:35.221Z,16.41
2022-10-17T01:58:35.193Z,16.32
2022-10-17T01:59:35.174Z,16.32
2022-10-17T02:00:35.175Z,16.28
2022-10-17T02:01:35.210Z,16.26
2022-10-17T02:02:35.251Z,16.21
2022-10-17T02:03:35.135Z,16.20
2022-10-17T02:04:35.128Z,16.12
2022-10-17T02:05:35.116Z,16.13
2022-10-17T02:06:35.104Z,16.12
2022-10-17T02:07:35.084Z,16.10
2022-10-17T02:08:35.094Z,16.08
2022-10-17T02:09:35.067Z,16.12
2022-10-17T02:10:35.055Z,16.15
2022-10-17T02:11:35.045Z,16.17
2022-10-17T02:12:35.036Z,16.20
2022-10-17T02:13:35.045Z,16.13
2022-10-17T02:14:35.015Z,16.05
2022-10-17T02:15:35.006Z,16.04
2022-10-17T02:16:34.986Z,16.02
2022-10-17T02:17:35.044Z,16.00
2022-10-17T02:18:34.965Z,16.01
2022-10-17T02:19:34.973Z,16.04
2022-10-17T02:20:34.954Z,16.10
2022-10-17T02:21:34.939Z,16.09
2022-10-17T02:22:34.925Z,16.09
2022-10-17T02:23:34.908Z,16.10
2022-10-17T02:24:34.895Z,16.09
2022-10-17T02:25:34.908Z,16.09
2022-10-17T02:26:34.877Z,16.10
2022-10-17T02:27:34.864Z,16.05
2022-10-17T02:28:35.028Z,16.10
2022-10-17T02:29:34.837Z,16.12
2022-10-17T02:30:34.834Z,16.10
2022-10-17T02:31:34.834Z,16.08
2022-10-17T02:32:34.870Z,16.04
2022-10-17T02:33:34.796Z,16.04
2022-10-17T02:34:34.786Z,16.04
2022-10-17T02:35:34.776Z,16.01
2022-10-17T02:36:34.787Z,15.97
2022-10-17T02:37:34.756Z,15.94
2022-10-17T02:38:34.751Z,15.94
2022-10-17T02:39:34.736Z,15.88
2022-10-17T02:40:34.726Z,15.82
2022-10-17T02:41:34.766Z,15.80
2022-10-17T02:42:34.746Z,15.77
2022-10-17T02:43:34.686Z,15.73
2022-10-17T02:44:34.677Z,15.70
2022-10-17T02:45:34.659Z,15.64
2022-10-17T02:46:34.655Z,15.55
2022-10-17T02:47:34.645Z,15.54
2022-10-17T02:48:34.675Z,15.55
2022-10-17T02:49:34.619Z,15.57
2022-10-17T02:50:34.627Z,15.58
2022-10-17T02:51:34.600Z,15.58
2022-10-17T02:52:34.587Z,15.61
2022-10-17T02:53:34.587Z,15.62
2022-10-17T02:54:34.585Z,15.65
2022-10-17T02:55:34.558Z,15.72
2022-10-17T02:56:34.537Z,15.75
2022-10-17T02:57:34.528Z,15.77
2022-10-17T02:58:34.525Z,15.77
2022-10-17T03:00:34.526Z,15.77
2022-10-17T03:01:34.500Z,15.76
2022-10-17T03:02:34.477Z,15.73
2022-10-17T03:03:34.458Z,15.73
2022-10-17T03:04:34.450Z,15.73
2022-10-17T03:05:34.438Z,15.73
2022-10-17T03:06:34.451Z,15.67
2022-10-17T03:07:34.417Z,15.65
2022-10-17T03:08:34.465Z,15.59
2022-10-17T03:09:34.388Z,15.59
2022-10-17T03:10:34.388Z,15.57
2022-10-17T03:11:34.367Z,15.61
2022-10-17T03:12:34.379Z,15.58
2022-10-17T03:13:36.321Z,15.59
2022-10-17T03:14:35.338Z,15.62
2022-10-17T03:15:34.326Z,15.61
2022-10-17T03:16:34.318Z,15.59
2022-10-17T03:17:34.348Z,15.58
2022-10-17T03:18:34.319Z,15.57
2022-10-17T03:19:34.279Z,15.61
2022-10-17T03:20:34.269Z,15.62
2022-10-17T03:21:34.259Z,15.61
2022-10-17T03:22:34.248Z,15.58
2022-10-17T03:23:34.238Z,15.57
2022-10-17T03:24:34.239Z,15.59
2022-10-17T03:25:34.219Z,15.57
2022-10-17T03:26:34.232Z,15.57
2022-10-17T03:27:34.190Z,15.55
2022-10-17T03:28:34.253Z,15.58
2022-10-17T03:29:34.189Z,15.52
2022-10-17T03:30:34.160Z,15.47
2022-10-17T03:31:34.148Z,15.44
2022-10-17T03:32:34.139Z,15.49
2022-10-17T03:33:34.119Z,15.49
2022-10-17T03:34:34.118Z,15.42
2022-10-17T03:35:34.121Z,15.44
2022-10-17T03:36:34.633Z,15.44
2022-10-17T03:37:34.079Z,15.42
2022-10-17T03:38:34.070Z,15.40
2022-10-17T03:39:34.059Z,15.37
2022-10-17T03:40:34.049Z,15.42
2022-10-17T03:41:34.059Z,15.42
2022-10-17T03:42:34.028Z,15.42
2022-10-17T03:43:34.010Z,15.42
2022-10-17T03:44:34.001Z,15.42
2022-10-17T03:45:33.991Z,15.46
2022-10-17T03:46:33.972Z,15.49
2022-10-17T03:47:33.979Z,15.52
2022-10-17T03:48:33.949Z,15.44
2022-10-17T03:49:33.948Z,15.44
2022-10-17T03:50:33.929Z,15.40
2022-10-17T03:51:33.919Z,15.39
2022-10-17T03:52:33.920Z,15.35
2022-10-17T03:53:33.899Z,15.37
2022-10-17T03:54:33.891Z,15.36
2022-10-17T03:55:33.884Z,15.36
2022-10-17T03:56:33.860Z,15.40
2022-10-17T03:57:33.852Z,15.39
2022-10-17T03:58:40.910Z,15.44
2022-10-17T03:59:33.830Z,15.42
2022-10-17T04:00:33.830Z,15.43
2022-10-17T04:01:33.894Z,15.44
2022-10-17T04:02:33.800Z,15.46
2022-10-17T04:03:33.790Z,15.44
2022-10-17T04:04:33.790Z,15.40
2022-10-17T04:05:33.768Z,15.37
2022-10-17T04:06:33.751Z,15.40
2022-10-17T04:07:33.747Z,15.40
2022-10-17T04:08:33.742Z,15.37
2022-10-17T04:09:33.719Z,15.35
2022-10-17T04:10:33.721Z,15.33
2022-10-17T04:11:33.700Z,15.29
2022-10-17T04:12:33.682Z,15.27
2022-10-17T04:13:33.670Z,15.25
2022-10-17T04:14:33.660Z,15.28
2022-10-17T04:15:33.650Z,15.28
2022-10-17T04:16:33.657Z,15.33
2022-10-17T04:17:37.212Z,15.29
2022-10-17T04:18:33.615Z,15.31
2022-10-17T04:19:33.611Z,15.36
2022-10-17T04:20:33.592Z,15.35
2022-10-17T04:21:33.602Z,15.31
2022-10-17T04:22:33.570Z,15.37
2022-10-17T04:23:33.563Z,15.40
2022-10-17T04:24:33.542Z,15.39
2022-10-17T04:25:36.080Z,15.42
2022-10-17T04:26:33.521Z,15.43
2022-10-17T04:27:33.541Z,15.44
2022-10-17T04:28:33.616Z,15.44
2022-10-17T04:29:33.491Z,15.46
2022-10-17T04:30:33.479Z,15.46
2022-10-17T04:31:33.471Z,15.44
2022-10-17T04:32:33.460Z,15.44
2022-10-17T04:33:33.470Z,15.42
2022-10-17T04:34:33.432Z,15.40
2022-10-17T04:35:33.432Z,15.39
2022-10-17T04:36:33.412Z,15.35
2022-10-17T04:37:33.412Z,15.36
2022-10-17T04:38:33.391Z,15.37
2022-10-17T04:39:33.412Z,15.37
2022-10-17T04:40:33.362Z,15.40
2022-10-17T04:41:33.361Z,15.42
2022-10-17T04:42:33.342Z,15.40
2022-10-17T04:43:33.333Z,15.40
2022-10-17T04:44:33.324Z,15.36
2022-10-17T04:45:33.330Z,15.37
2022-10-17T04:46:33.292Z,15.40
2022-10-17T04:47:33.293Z,15.47
2022-10-17T04:48:33.274Z,15.51
2022-10-17T04:49:33.286Z,15.54
2022-10-17T04:50:33.324Z,15.52
2022-10-17T04:51:33.243Z,15.52
2022-10-17T04:52:33.231Z,15.52
2022-10-17T04:53:33.222Z,15.55
2022-10-17T04:54:33.271Z,15.57
2022-10-17T04:55:33.201Z,15.55
2022-10-17T04:56:33.211Z,15.57
2022-10-17T04:57:33.174Z,15.52
2022-10-17T04:58:33.163Z,15.52
2022-10-17T04:59:33.153Z,15.47
2022-10-17T05:00:33.238Z,15.43
2022-10-17T05:01:33.132Z,15.37
2022-10-17T05:02:33.133Z,15.36
2022-10-17T05:03:33.114Z,15.35
2022-10-17T05:04:33.093Z,15.31
2022-10-17T05:05:33.092Z,15.25
2022-10-17T05:06:33.073Z,15.27
2022-10-17T05:07:33.084Z,15.27
2022-10-17T05:08:33.052Z,15.28
2022-10-17T05:09:33.044Z,15.31
2022-10-17T05:10:33.032Z,15.35
2022-10-17T05:11:33.026Z,15.36
2022-10-17T05:12:33.004Z,15.40
2022-10-17T05:13:33.014Z,15.46
2022-10-17T05:14:32.983Z,15.54
2022-10-17T05:15:32.994Z,15.54
2022-10-17T05:16:32.963Z,15.47
2022-10-17T05:17:32.954Z,15.40
2022-10-17T05:18:32.957Z,15.33
2022-10-17T05:19:32.934Z,15.24
2022-10-17T05:20:32.915Z,15.18
2022-10-17T05:22:32.958Z,15.22
2022-10-17T05:23:32.887Z,15.27
2022-10-17T05:24:32.893Z,15.37
2022-10-17T05:25:32.866Z,15.35
2022-10-17T05:26:32.845Z,15.28
2022-10-17T05:27:32.848Z,15.28
2022-10-17T05:28:32.921Z,15.31
2022-10-17T05:29:32.824Z,15.46
2022-10-17T05:30:35.288Z,15.52
2022-10-17T05:31:32.795Z,15.54
2022-10-17T05:32:32.864Z,15.64
2022-10-17T05:33:32.775Z,15.73
2022-10-17T05:34:32.762Z,15.73
2022-10-17T05:35:32.774Z,15.79
2022-10-17T05:36:32.737Z,15.83
2022-10-17T05:37:32.737Z,15.97
2022-10-17T05:38:32.716Z,16.04
2022-10-17T05:39:32.704Z,16.00
2022-10-17T05:40:32.701Z,16.02
2022-10-17T05:41:32.726Z,15.98
2022-10-17T05:42:33.025Z,15.95
2022-10-17T05:43:32.675Z,16.02
2022-10-17T05:44:32.646Z,16.01
2022-10-17T05:45:32.655Z,16.00
2022-10-17T05:46:32.626Z,16.02
2022-10-17T05:47:33.007Z,16.01
2022-10-17T05:48:32.604Z,16.04
2022-10-17T05:49:44.725Z,16.08
2022-10-17T05:50:33.577Z,16.08
2022-10-17T05:51:32.728Z,16.12
2022-10-17T05:52:32.924Z,16.15
2022-10-17T05:53:32.585Z,16.20
2022-10-17T05:54:32.536Z,16.26
2022-10-17T05:55:32.526Z,16.26
2022-10-17T05:56:32.514Z,16.28
2022-10-17T05:57:32.506Z,16.28
2022-10-17T05:58:48.845Z,16.28
2022-10-17T05:59:33.505Z,16.24
2022-10-17T06:00:32.501Z,16.17
2022-10-17T06:01:32.510Z,16.23
2022-10-17T06:02:33.102Z,16.13
2022-10-17T06:03:32.437Z,16.15
2022-10-17T06:04:32.426Z,16.04
2022-10-17T06:05:32.438Z,16.02
2022-10-17T06:06:32.404Z,16.02
2022-10-17T06:07:32.396Z,16.05
2022-10-17T06:08:32.376Z,16.15
2022-10-17T06:09:32.424Z,16.12
2022-10-17T06:10:32.357Z,16.10
2022-10-17T06:11:32.365Z,16.12
2022-10-17T06:12:32.418Z,16.13
2022-10-17T06:13:32.325Z,16.17
2022-10-17T06:14:32.318Z,16.15
2022-10-17T06:15:32.306Z,16.08
2022-10-17T06:16:32.336Z,16.05
2022-10-17T06:17:32.276Z,16.09
2022-10-17T06:18:32.266Z,16.04
2022-10-17T06:19:32.257Z,16.05
2022-10-17T06:20:32.248Z,16.05
2022-10-17T06:21:32.237Z,15.98
2022-10-17T06:22:32.449Z,15.98
2022-10-17T06:23:32.217Z,16.04
2022-10-17T06:24:32.198Z,16.05
2022-10-17T06:25:32.187Z,16.20
2022-10-17T06:26:32.177Z,16.31
2022-10-17T06:27:32.174Z,16.38
2022-10-17T06:28:32.205Z,16.42
2022-10-17T06:29:32.147Z,16.51
2022-10-17T06:30:32.128Z,16.57
2022-10-17T06:31:32.127Z,16.71
2022-10-17T06:32:32.250Z,16.83
2022-10-17T06:33:32.127Z,16.99
2022-10-17T06:34:32.087Z,17.14
2022-10-17T06:35:32.077Z,17.29
2022-10-17T06:36:32.067Z,17.54
2022-10-17T06:37:35.318Z,17.82
2022-10-17T06:38:32.039Z,18.18
2022-10-17T06:39:32.048Z,18.53
2022-10-17T06:40:32.020Z,18.80
2022-10-17T06:41:32.008Z,19.07
2022-10-17T06:42:31.996Z,19.26
2022-10-17T06:43:31.997Z,19.41
2022-10-17T06:44:32.065Z,19.47
2022-10-17T06:45:31.967Z,19.31
2022-10-17T06:46:31.950Z,19.16
2022-10-17T06:47:32.311Z,19.22
2022-10-17T06:48:31.929Z,19.26
2022-10-17T06:49:31.919Z,19.39
2022-10-17T06:50:31.940Z,19.64
2022-10-17T06:51:31.899Z,19.69
2022-10-17T06:52:31.881Z,19.70
2022-10-17T06:53:31.878Z,19.58
2022-10-17T06:54:31.860Z,19.89
2022-10-17T06:55:31.849Z,20.19
2022-10-17T06:56:31.862Z,20.41
2022-10-17T06:57:32.140Z,20.40
2022-10-17T06:58:31.818Z,20.39
2022-10-17T06:59:31.808Z,20.25
2022-10-17T07:00:31.822Z,20.16
2022-10-17T07:01:31.784Z,20.28
2022-10-17T07:02:32.090Z,20.34
2022-10-17T07:03:31.760Z,20.44
2022-10-17T07:04:31.750Z,20.75
2022-10-17T07:05:31.739Z,20.82
2022-10-17T07:06:31.730Z,20.87
2022-10-17T07:07:31.975Z,21.07
2022-10-17T07:08:31.722Z,21.54
2022-10-17T07:09:31.692Z,21.69
2022-10-17T07:10:31.679Z,21.88
2022-10-17T07:11:31.671Z,22.18
2022-10-17T07:12:31.662Z,22.25
2022-10-17T07:13:34.458Z,22.51
2022-10-17T07:14:32.660Z,22.60
2022-10-17T07:15:31.634Z,22.73
2022-10-17T07:16:31.616Z,22.90
2022-10-17T07:17:31.804Z,23.08
2022-10-17T07:18:31.593Z,23.05
2022-10-17T07:19:31.584Z,23.23
2022-10-17T07:20:31.622Z,23.36
2022-10-17T07:21:35.201Z,23.62
2022-10-17T07:22:32.543Z,23.80
2022-10-17T07:23:31.545Z,24.16
2022-10-17T07:24:31.527Z,24.16
2022-10-17T07:25:32.517Z,23.86
2022-10-17T07:26:31.535Z,23.73
2022-10-17T07:27:31.887Z,23.63
2022-10-17T07:28:31.507Z,23.25
2022-10-17T07:29:31.473Z,22.88
2022-10-17T07:30:31.455Z,23.00
2022-10-17T07:31:31.446Z,23.18
2022-10-17T07:32:31.454Z,23.31
2022-10-17T07:33:31.429Z,23.48
2022-10-17T07:34:31.407Z,23.77
2022-10-17T07:35:31.404Z,24.03
2022-10-17T07:36:31.386Z,24.18
2022-10-17T07:37:31.770Z,24.50
2022-10-17T07:38:31.386Z,24.42
2022-10-17T07:39:31.358Z,24.33
2022-10-17T07:40:31.347Z,24.50
2022-10-17T07:41:31.335Z,24.63
2022-10-17T07:42:31.357Z,24.66
2022-10-17T07:43:31.315Z,24.51
2022-10-17T07:44:31.319Z,24.70
2022-10-17T07:45:31.288Z,24.80
2022-10-17T07:46:31.279Z,24.96
2022-10-17T07:47:31.675Z,24.80
2022-10-17T07:48:31.256Z,24.54
2022-10-17T07:49:31.248Z,24.26
2022-10-17T07:50:31.257Z,24.26
2022-10-17T07:51:31.269Z,24.45
2022-10-17T07:52:31.568Z,24.30
2022-10-17T07:53:31.201Z,24.33
2022-10-17T07:54:31.188Z,24.21
2022-10-17T07:55:31.190Z,24.26
2022-10-17T07:56:31.188Z,24.43
2022-10-17T07:57:31.170Z,24.28
2022-10-17T07:58:31.150Z,24.11
2022-10-17T07:59:31.133Z,23.88
2022-10-17T08:00:31.320Z,23.86
2022-10-17T08:01:31.139Z,24.01
2022-10-17T08:02:31.349Z,23.74
2022-10-17T08:03:31.089Z,23.66
2022-10-17T08:04:31.090Z,23.63
2022-10-17T08:05:31.079Z,23.63
2022-10-17T08:06:31.060Z,23.66
2022-10-17T08:07:31.169Z,23.84
2022-10-17T08:08:31.033Z,23.92
2022-10-17T08:09:31.022Z,24.02
2022-10-17T08:10:31.013Z,23.86
2022-10-17T08:11:31.002Z,23.95
2022-10-17T08:12:31.182Z,24.13
2022-10-17T08:13:30.993Z,24.24
2022-10-17T08:14:30.972Z,24.61
2022-10-17T08:15:32.046Z,24.60
2022-10-17T08:16:30.943Z,24.54
2022-10-17T08:17:30.995Z,24.11
2022-10-17T08:18:30.945Z,23.92
2022-10-17T08:19:30.916Z,23.95
2022-10-17T08:20:30.904Z,24.10
2022-10-17T08:21:30.892Z,23.91
2022-10-17T08:22:31.422Z,23.93
2022-10-17T08:23:30.865Z,23.87
2022-10-17T08:24:30.906Z,23.81
2022-10-17T08:25:30.848Z,23.69
2022-10-17T08:26:30.843Z,23.73
2022-10-17T08:27:30.828Z,23.68
2022-10-17T08:28:30.878Z,23.74
2022-10-17T08:29:30.797Z,23.61
2022-10-17T08:30:30.822Z,23.77
2022-10-17T08:31:30.776Z,23.84
2022-10-17T08:32:31.019Z,23.84
2022-10-17T08:33:30.757Z,23.95
2022-10-17T08:34:30.747Z,23.86
2022-10-17T08:35:30.737Z,23.74
2022-10-17T08:36:30.756Z,23.41
2022-10-17T08:37:30.887Z,23.34
2022-10-17T08:38:34.682Z,23.50
2022-10-17T08:39:30.689Z,23.56
2022-10-17T08:40:30.688Z,23.32
2022-10-17T08:41:30.668Z,23.06
2022-10-17T08:42:30.689Z,22.99
2022-10-17T08:43:35.191Z,23.17
2022-10-17T08:44:30.640Z,23.15
2022-10-17T08:45:30.629Z,23.12
2022-10-17T08:46:30.619Z,23.32
2022-10-17T08:47:30.852Z,23.41
2022-10-17T08:48:30.621Z,23.54
2022-10-17T08:49:30.582Z,23.24
2022-10-17T08:50:30.580Z,23.27
2022-10-17T08:51:30.560Z,23.32
2022-10-17T08:52:30.561Z,23.56
2022-10-17T08:53:30.540Z,23.71
2022-10-17T08:54:30.551Z,23.76
2022-10-17T08:55:30.522Z,23.91
2022-10-17T08:56:44.585Z,24.03
2022-10-17T08:57:31.837Z,24.32
2022-10-17T08:58:30.482Z,24.77
2022-10-17T08:59:30.476Z,24.99
2022-10-17T09:00:30.482Z,25.04
2022-10-17T09:01:30.443Z,24.88
2022-10-17T09:02:30.459Z,24.89
2022-10-17T09:03:30.472Z,24.98
2022-10-17T09:04:32.976Z,24.91
2022-10-17T09:05:30.414Z,24.47
2022-10-17T09:06:30.423Z,24.45
2022-10-17T09:07:30.644Z,24.40
2022-10-17T09:08:30.373Z,24.32
2022-10-17T09:09:30.367Z,23.99
2022-10-17T09:10:30.355Z,23.68
2022-10-17T09:11:30.344Z,23.84
2022-10-17T09:12:30.783Z,24.03
2022-10-17T09:13:30.374Z,23.91
2022-10-17T09:14:30.315Z,23.93
2022-10-17T09:15:30.296Z,23.71
2022-10-17T09:16:30.306Z,23.73
2022-10-17T09:17:30.567Z,23.65
2022-10-17T09:18:30.296Z,23.56
2022-10-17T09:19:30.257Z,23.71
2022-10-17T09:20:30.246Z,23.68
2022-10-17T09:21:30.235Z,23.73
2022-10-17T09:22:30.226Z,23.63
2022-10-17T09:23:30.216Z,23.81
2022-10-17T09:24:30.227Z,23.83
2022-10-17T09:25:30.195Z,23.80
2022-10-17T09:26:30.217Z,23.77
2022-10-17T09:27:30.408Z,23.43
2022-10-17T09:28:30.198Z,23.28
2022-10-17T09:29:36.033Z,23.23
2022-10-17T09:30:44.634Z,23.25
2022-10-17T09:31:31.128Z,23.40
2022-10-17T09:32:30.406Z,23.48
2022-10-17T09:33:35.967Z,23.56
2022-10-17T09:34:31.163Z,23.47
2022-10-17T09:35:30.091Z,23.50
2022-10-17T09:36:30.089Z,23.34
2022-10-17T09:37:30.057Z,23.23
2022-10-17T09:38:30.050Z,23.25
2022-10-17T09:39:30.036Z,23.37
2022-10-17T09:40:30.027Z,23.15
2022-10-17T09:41:44.917Z,22.84
2022-10-17T09:42:31.461Z,22.70
2022-10-17T09:43:29.990Z,22.93
2022-10-17T09:44:29.980Z,23.09
2022-10-17T09:45:29.970Z,23.12
2022-10-17T09:46:29.962Z,23.02
2022-10-17T09:47:30.035Z,23.12
2022-10-17T09:48:29.960Z,23.06
2022-10-17T09:49:29.921Z,22.99
2022-10-17T09:50:29.911Z,23.00
2022-10-17T09:51:29.893Z,23.06
2022-10-17T09:52:30.293Z,23.21
2022-10-17T09:53:29.965Z,23.37
2022-10-17T09:54:29.871Z,23.36
2022-10-17T09:55:29.852Z,23.28
2022-10-17T09:56:29.843Z,23.12
2022-10-17T09:57:29.833Z,23.10
2022-10-17T09:58:36.894Z,23.27
2022-10-17T09:59:29.819Z,23.36
2022-10-17T10:00:29.849Z,23.27
2022-10-17T10:01:29.793Z,23.21
2022-10-17T10:02:29.941Z,23.31
2022-10-17T10:03:29.775Z,23.32
2022-10-17T10:04:30.451Z,23.44
2022-10-17T10:05:30.745Z,23.58
2022-10-17T10:06:29.738Z,23.58
2022-10-17T10:07:29.725Z,23.56
2022-10-17T10:08:29.714Z,23.13
2022-10-17T10:09:29.718Z,22.99
2022-10-17T10:10:29.700Z,23.09
2022-10-17T10:11:29.676Z,23.12
2022-10-17T10:12:29.975Z,23.24
2022-10-17T10:13:29.658Z,23.50
2022-10-17T10:14:29.652Z,23.61
2022-10-17T10:15:29.657Z,23.62
2022-10-17T10:16:29.630Z,23.56
2022-10-17T10:17:29.607Z,23.54
2022-10-17T10:19:29.587Z,23.51
2022-10-17T10:20:29.597Z,23.51
2022-10-17T10:21:29.572Z,23.46
2022-10-17T10:22:29.708Z,23.48
2022-10-17T10:23:29.553Z,23.59
2022-10-17T10:24:31.023Z,23.65
2022-10-17T10:25:29.518Z,23.58
2022-10-17T10:26:29.564Z,23.55
2022-10-17T10:27:29.545Z,23.40
2022-10-17T10:28:29.551Z,23.46
2022-10-17T10:29:29.485Z,23.50
2022-10-17T10:30:29.482Z,23.41
2022-10-17T10:31:29.463Z,23.23
2022-10-17T10:32:29.729Z,23.40
2022-10-17T10:33:29.430Z,23.56
2022-10-17T10:34:29.421Z,23.71
2022-10-17T10:35:29.431Z,23.80
2022-10-17T10:36:29.431Z,23.78
2022-10-17T10:37:29.611Z,23.74
2022-10-17T10:38:29.410Z,23.55
2022-10-17T10:39:29.371Z,23.46
2022-10-17T10:40:29.362Z,23.61
2022-10-17T10:41:29.350Z,23.78
2022-10-17T10:42:29.334Z,23.80
2022-10-17T10:43:29.322Z,23.80
2022-10-17T10:44:29.342Z,23.78
2022-10-17T10:45:47.498Z,23.69
2022-10-17T10:46:30.352Z,23.48
2022-10-17T10:47:29.405Z,23.48
2022-10-17T10:48:29.274Z,23.43
2022-10-17T10:49:29.252Z,23.43
2022-10-17T10:50:29.263Z,23.54
2022-10-17T10:51:29.237Z,23.36
2022-10-17T10:52:29.223Z,23.28
2022-10-17T10:53:34.105Z,23.36
2022-10-17T10:54:30.254Z,23.43
2022-10-17T10:55:29.189Z,23.59
2022-10-17T10:56:29.262Z,23.61
2022-10-17T10:57:29.560Z,23.48
2022-10-17T10:58:29.165Z,23.48
2022-10-17T10:59:29.142Z,23.54
2022-10-17T11:00:29.177Z,23.51
2022-10-17T11:01:29.167Z,23.47
2022-10-17T11:02:29.114Z,23.48
2022-10-17T11:03:29.104Z,23.62
2022-10-17T11:04:29.094Z,23.55
2022-10-17T11:05:29.078Z,23.27
2022-10-17T11:06:29.186Z,23.28
2022-10-17T11:07:29.283Z,23.40
2022-10-17T11:08:29.045Z,23.58
2022-10-17T11:09:31.421Z,23.51
2022-10-17T11:10:29.030Z,23.50
2022-10-17T11:11:29.007Z,23.73
2022-10-17T11:12:29.030Z,23.81
2022-10-17T11:13:28.993Z,23.96
2022-10-17T11:14:28.977Z,23.99
2022-10-17T11:15:28.965Z,23.87
2022-10-17T11:16:28.986Z,24.03
2022-10-17T11:17:29.174Z,24.14
2022-10-17T11:18:28.959Z,24.06
2022-10-17T11:19:28.919Z,24.10
2022-10-17T11:20:28.908Z,23.92
2022-10-17T11:21:29.006Z,23.88
2022-10-17T11:22:29.479Z,23.96
2022-10-17T11:23:28.868Z,24.01
2022-10-17T11:24:28.888Z,24.02
2022-10-17T11:25:28.849Z,23.96
2022-10-17T11:26:28.851Z,24.06
2022-10-17T11:27:28.828Z,23.99
2022-10-17T11:28:28.879Z,24.16
2022-10-17T11:29:28.808Z,24.30
2022-10-17T11:30:28.831Z,24.38
2022-10-17T11:31:28.781Z,24.53
2022-10-17T11:32:28.969Z,24.43
2022-10-17T11:33:28.760Z,24.48
2022-10-17T11:34:28.752Z,24.57
2022-10-17T11:35:28.740Z,24.65
2022-10-17T11:36:28.761Z,24.70
2022-10-17T11:37:28.714Z,24.76
2022-10-17T11:38:28.711Z,24.48
2022-10-17T11:39:28.693Z,24.23
2022-10-17T11:40:28.682Z,24.36
2022-10-17T11:41:28.670Z,24.43
2022-10-17T11:42:28.941Z,24.43
2022-10-17T11:43:28.694Z,24.18
2022-10-17T11:44:28.642Z,24.16
2022-10-17T11:45:28.622Z,23.99
2022-10-17T11:46:28.618Z,23.84
2022-10-17T11:47:28.624Z,24.13
2022-10-17T11:48:28.593Z,24.26
2022-10-17T11:49:28.583Z,24.50
2022-10-17T11:52:37.742Z,24.55
2022-10-17T11:53:29.545Z,24.58
2022-10-17T11:54:28.526Z,24.53
2022-10-17T11:55:28.513Z,24.57
2022-10-17T11:56:28.506Z,24.58
2022-10-17T11:57:28.484Z,24.60
2022-10-17T11:59:28.465Z,24.24
2022-10-17T12:00:28.466Z,24.10
2022-10-17T12:01:28.447Z,24.03
2022-10-17T12:02:28.609Z,24.16
2022-10-17T12:03:28.425Z,24.35
2022-10-17T12:04:28.514Z,24.50
2022-10-17T12:05:28.399Z,24.68
2022-10-17T12:06:29.502Z,24.70
2022-10-17T12:07:28.873Z,24.76
2022-10-17T12:08:30.573Z,24.70
2022-10-17T12:09:28.356Z,24.53
2022-10-17T12:10:28.367Z,24.53
2022-10-17T12:11:28.339Z,24.63
2022-10-17T12:12:28.761Z,24.74
2022-10-17T12:13:28.317Z,24.68
2022-10-17T12:14:28.297Z,24.69
2022-10-17T12:15:28.328Z,24.63
2022-10-17T12:16:28.323Z,24.51
2022-10-17T12:17:28.528Z,24.58
2022-10-17T12:18:28.258Z,24.69
2022-10-17T12:19:28.250Z,24.88
2022-10-17T12:20:28.236Z,24.91
2022-10-17T12:21:31.289Z,25.06
2022-10-17T12:22:28.208Z,25.08
2022-10-17T12:23:28.199Z,25.18
2022-10-17T12:24:28.655Z,25.18
2022-10-17T12:25:28.209Z,25.14
2022-10-17T12:26:28.167Z,25.17
2022-10-17T12:27:28.402Z,25.10
2022-10-17T12:28:28.181Z,25.18
2022-10-17T12:29:28.131Z,25.28
2022-10-17T12:30:28.131Z,25.25
2022-10-17T12:31:33.555Z,25.21
2022-10-17T12:32:36.860Z,25.21
2022-10-17T12:33:29.090Z,25.31
2022-10-17T12:34:28.074Z,25.47
2022-10-17T12:35:28.072Z,25.44
2022-10-17T12:36:28.058Z,25.16
2022-10-17T12:37:28.345Z,25.17
2022-10-17T12:38:28.071Z,25.25
2022-10-17T12:39:28.022Z,25.38
2022-10-17T12:40:28.012Z,25.36
2022-10-17T12:41:28.004Z,25.47
2022-10-17T12:42:28.208Z,25.43
2022-10-17T12:43:27.986Z,25.43
2022-10-17T12:44:28.730Z,25.54
2022-10-17T12:45:27.963Z,25.53
2022-10-17T12:46:27.944Z,25.31
2022-10-17T12:47:28.181Z,25.33
2022-10-17T12:48:27.924Z,25.41
2022-10-17T12:49:27.913Z,25.55
2022-10-17T12:50:27.925Z,25.55
2022-10-17T12:51:35.685Z,25.65
2022-10-17T12:52:28.911Z,25.38
2022-10-17T12:53:27.874Z,25.22
2022-10-17T12:54:27.855Z,25.36
2022-10-17T12:55:27.866Z,25.51
2022-10-17T12:56:27.856Z,25.54
2022-10-17T12:57:27.957Z,25.48
2022-10-17T12:58:27.815Z,25.60
2022-10-17T12:59:27.809Z,25.66